Time;durP1;ratioP1;P1;durP2;ratioP2;P2;SDS_P1;SDS_P2;PMS_P1;PMS_P2;Temp;Humidity;BMP_temperature;BMP_pressure;BME280_temperature;BME280_humidity;BME280_pressure;Samples;Min_cycle;Max_cycle;Signal;HPM_P1;HPM_P2
2022/03/12 00:00:35;;;;;;;9.18;4.70;;;;;;;3.57;39.51;101748.97;2096119;28;46639;-69
2022/03/12 00:01:36;;;;;;;10.10;4.60;;;;;;;3.53;39.45;101760.38;2096154;28;43622;-69
2022/03/12 00:02:38;;;;;;;8.50;5.32;;;;;;;3.52;39.01;101748.03;2086537;28;44166;-69
2022/03/12 00:03:40;;;;;;;8.48;5.07;;;;;;;3.51;39.46;101760.34;2087494;28;44536;-69
2022/03/12 00:04:44;;;;;;;8.23;4.78;;;;;;;3.52;39.26;101746.28;2087249;28;45118;-69
2022/03/12 00:05:59;;;;;;;7.85;4.90;;;;;;;3.52;39.62;101740.09;2079102;28;43991;-69
2022/03/12 00:07:02;;;;;;;8.60;4.40;;;;;;;3.51;39.53;101756.81;2080666;28;42040;-69
2022/03/12 00:08:05;;;;;;;7.57;4.55;;;;;;;3.50;39.36;101770.91;2086727;28;45499;-68
2022/03/12 00:09:06;;;;;;;8.43;4.60;;;;;;;3.52;39.18;101753.31;2080679;28;20267;-69
2022/03/12 00:10:13;;;;;;;10.80;4.88;;;;;;;3.50;39.47;101753.28;2079039;28;31652;-68
2022/03/12 00:11:17;;;;;;;10.13;5.25;;;;;;;3.52;38.95;101753.31;2078716;28;44007;-68
2022/03/12 00:12:19;;;;;;;8.15;4.57;;;;;;;3.50;39.40;101755.03;2079915;28;42257;-67
2022/03/12 00:13:22;;;;;;;7.43;4.78;;;;;;;3.49;39.67;101747.97;2088372;28;20095;-68
2022/03/12 00:14:26;;;;;;;8.38;5.00;;;;;;;3.41;39.52;101751.34;2078447;28;46471;-68
2022/03/12 00:15:31;;;;;;;8.98;4.85;;;;;;;3.38;39.43;101746.00;2080893;28;21043;-68
2022/03/12 00:16:33;;;;;;;8.27;4.80;;;;;;;3.35;39.77;101745.03;2087289;28;45338;-68
2022/03/12 00:17:38;;;;;;;7.90;4.68;;;;;;;3.41;39.79;101751.34;2087328;28;45765;-69
2022/03/12 00:18:42;;;;;;;7.00;4.55;;;;;;;3.36;39.47;101753.00;2078523;28;42966;-69
2022/03/12 00:19:44;;;;;;;10.20;4.93;;;;;;;3.31;39.60;101751.16;2078794;28;45320;-68
2022/03/12 00:20:51;;;;;;;8.20;5.22;;;;;;;3.31;40.01;101754.69;2078608;28;43500;-68
2022/03/12 00:21:54;;;;;;;10.05;4.75;;;;;;;3.26;40.41;101751.03;2087184;28;45398;-69
2022/03/12 00:22:56;;;;;;;7.97;4.93;;;;;;;3.24;39.85;101743.06;2087412;28;33549;-69
2022/03/12 00:24:00;;;;;;;7.50;5.07;;;;;;;3.24;39.92;101750.13;2087627;28;45263;-68
2022/03/12 00:25:02;;;;;;;8.57;4.70;;;;;;;3.22;39.99;101749.19;2087432;28;44025;-68
2022/03/12 00:26:04;;;;;;;9.70;5.05;;;;;;;3.21;39.85;101742.09;2087078;28;43305;-69
2022/03/12 00:27:09;;;;;;;10.27;4.88;;;;;;;3.23;39.86;101750.97;2088525;28;20038;-69
2022/03/12 00:28:12;;;;;;;6.03;4.30;;;;;;;3.21;40.31;101742.09;2088011;28;45557;-69
2022/03/12 00:29:15;;;;;;;7.80;4.82;;;;;;;3.24;39.96;101752.75;2071138;28;20198;-69
2022/03/12 00:30:22;;;;;;;10.20;4.68;;;;;;;3.27;39.32;101749.28;2071068;28;46646;-69
2022/03/12 00:31:25;;;;;;;8.65;4.63;;;;;;;3.25;39.33;101749.28;2087221;28;43815;-69
2022/03/12 00:32:27;;;;;;;11.30;4.85;;;;;;;3.24;39.84;101752.75;2090891;28;45510;-68
2022/03/12 00:33:29;;;;;;;7.95;5.03;;;;;;;3.20;40.38;101751.81;2095545;28;45500;-68
2022/03/12 00:34:31;;;;;;;10.15;4.72;;;;;;;3.17;39.83;101749.09;2095773;28;44275;-68
2022/03/12 00:35:33;;;;;;;8.48;4.70;;;;;;;3.18;40.21;101747.38;2095645;28;31512;-68
2022/03/12 00:36:35;;;;;;;10.02;4.80;;;;;;;3.18;39.98;101748.25;2095685;28;20053;-69
2022/03/12 00:37:40;;;;;;;8.30;4.40;;;;;;;3.16;39.88;101749.06;2095937;28;45141;-69
2022/03/12 00:38:42;;;;;;;11.02;5.00;;;;;;;3.12;39.68;101739.28;2096380;28;20036;-68
2022/03/12 00:39:47;;;;;;;7.40;4.63;;;;;;;3.12;39.66;101749.88;2095860;28;43721;-68
2022/03/12 00:40:50;;;;;;;8.57;4.38;;;;;;;3.11;39.44;101753.38;2095697;28;44017;-68
2022/03/12 00:41:54;;;;;;;9.98;4.95;;;;;;;3.09;39.80;101757.72;2096626;28;20052;-68
2022/03/12 00:42:56;;;;;;;12.00;4.75;;;;;;;3.09;39.70;101758.66;2094847;28;45234;-67
2022/03/12 00:43:58;;;;;;;13.13;5.28;;;;;;;3.07;40.10;101744.50;2095448;28;46391;-68
2022/03/12 00:45:00;;;;;;;6.57;4.28;;;;;;;3.06;39.99;101751.53;2096234;28;20048;-68
2022/03/12 00:46:05;;;;;;;9.23;4.28;;;;;;;3.08;39.96;101759.50;2086558;28;45326;-69
2022/03/12 00:47:06;;;;;;;10.93;4.50;;;;;;;3.09;39.58;101749.78;2087545;28;43736;-69
2022/03/12 00:48:08;;;;;;;10.02;4.82;;;;;;;3.05;40.20;101744.47;2095738;28;45292;-68
2022/03/12 00:49:30;;;;;;;6.70;4.32;;;;;;;2.98;40.31;101742.53;2096751;28;20930;-68
2022/03/12 00:50:32;;;;;;;7.22;4.35;;;;;;;2.95;40.34;101750.41;2086169;28;43374;-68
2022/03/12 00:51:34;;;;;;;9.35;4.78;;;;;;;2.94;40.31;101748.59;2086515;28;44430;-69
2022/03/12 00:52:35;;;;;;;8.00;4.82;;;;;;;2.93;40.15;101752.13;2078437;28;43461;-68
2022/03/12 00:53:40;;;;;;;8.45;4.55;;;;;;;2.93;40.49;101754.78;2087038;28;42900;-68
2022/03/12 00:54:45;;;;;;;9.20;4.55;;;;;;;2.93;40.15;101753.91;2095532;28;44952;-69
2022/03/12 00:55:46;;;;;;;9.70;4.30;;;;;;;2.94;40.37;101759.19;2095643;28;43353;-69
2022/03/12 00:56:48;;;;;;;13.13;4.70;;;;;;;2.94;40.37;101753.00;2095912;28;43913;-68
2022/03/12 00:57:50;;;;;;;8.95;4.72;;;;;;;2.90;40.24;101754.69;2095534;28;42142;-68
2022/03/12 00:58:52;;;;;;;8.00;4.38;;;;;;;2.91;40.21;101756.50;2095681;28;20045;-69
2022/03/12 00:59:54;;;;;;;8.15;4.60;;;;;;;2.89;40.30;101766.16;2094625;28;46359;-69
2022/03/12 01:00:57;;;;;;;7.60;4.07;;;;;;;2.90;40.26;101752.06;2088071;28;20069;-69
2022/03/12 01:01:58;;;;;;;9.25;4.15;;;;;;;2.89;40.10;101760.88;2086680;28;44696;-69
2022/03/12 01:03:01;;;;;;;7.40;4.50;;;;;;;2.89;39.98;101745.00;2095440;28;45646;-68
2022/03/12 01:04:04;;;;;;;9.20;4.88;;;;;;;2.85;40.39;101759.00;2095539;28;44819;-69
2022/03/12 01:05:06;;;;;;;10.07;4.68;;;;;;;2.88;40.15;101748.50;2095352;28;45184;-69
2022/03/12 01:06:12;;;;;;;8.25;4.80;;;;;;;2.88;39.97;101753.78;2096265;28;20055;-69
2022/03/12 01:07:13;;;;;;;8.65;4.80;;;;;;;2.87;39.94;101741.41;2086559;28;46727;-68
2022/03/12 01:08:17;;;;;;;7.45;4.55;;;;;;;2.83;40.37;101750.13;2085608;28;44439;-69
2022/03/12 01:09:19;;;;;;;9.80;4.43;;;;;;;2.85;40.82;101751.06;2086435;28;41178;-69
2022/03/12 01:10:21;;;;;;;10.18;4.70;;;;;;;2.82;40.52;101751.91;2086258;28;44337;-69
2022/03/12 01:11:22;;;;;;;10.98;4.78;;;;;;;2.81;40.21;101751.88;2095942;28;36135;-69
2022/03/12 01:12:24;;;;;;;7.15;4.28;;;;;;;2.78;40.44;101751.78;2095369;28;44889;-69
2022/03/12 01:13:27;;;;;;;7.38;4.38;;;;;;;2.74;40.56;101747.28;2095533;28;46191;-69
2022/03/12 01:14:30;;;;;;;9.73;4.75;;;;;;;2.72;40.38;101751.66;2088610;28;20180;-68
2022/03/12 01:15:34;;;;;;;11.32;4.85;;;;;;;2.69;40.67;101757.75;2077984;28;45622;-69
2022/03/12 01:16:36;;;;;;;9.27;4.70;;;;;;;2.66;40.70;101748.00;2077816;28;45619;-69
2022/03/12 01:17:39;;;;;;;7.72;4.50;;;;;;;2.63;40.43;101758.50;2078378;28;46116;-69
2022/03/12 01:18:41;;;;;;;7.05;4.32;;;;;;;2.64;40.36;101749.75;2078196;28;46653;-69
2022/03/12 01:19:43;;;;;;;7.93;4.28;;;;;;;2.64;40.19;101752.38;2078768;28;35017;-69
2022/03/12 01:20:46;;;;;;;11.52;4.55;;;;;;;2.65;40.69;101746.22;2078633;28;44046;-69
2022/03/12 01:21:47;;;;;;;6.63;4.22;;;;;;;2.62;40.67;101748.81;2078322;28;44267;-69
2022/03/12 01:22:49;;;;;;;9.27;4.38;;;;;;;2.61;40.29;101754.06;2084577;28;44928;-69
2022/03/12 01:23:51;;;;;;;8.38;4.50;;;;;;;2.58;40.74;101749.59;2095234;28;43904;-69
2022/03/12 01:24:52;;;;;;;6.93;4.18;;;;;;;2.58;40.85;101746.94;2095817;28;43234;-69
2022/03/12 01:25:54;;;;;;;6.75;4.05;;;;;;;2.60;40.70;101747.91;2095373;28;44997;-69
2022/03/12 01:26:57;;;;;;;6.65;3.97;;;;;;;2.62;40.38;101755.81;2095484;28;44963;-69
2022/03/12 01:27:59;;;;;;;9.98;4.82;;;;;;;2.64;40.37;101755.03;2095332;28;42374;-68
2022/03/12 01:29:02;;;;;;;9.02;4.63;;;;;;;2.63;40.62;101737.38;2086213;28;44468;-68
2022/03/12 01:30:07;;;;;;;7.70;4.65;;;;;;;2.66;40.14;101757.72;2078596;28;44787;-69
2022/03/12 01:31:10;;;;;;;8.32;4.70;;;;;;;2.64;40.07;101755.03;2078939;28;44180;-69
2022/03/12 01:32:12;;;;;;;10.07;4.50;;;;;;;2.61;40.25;101754.94;2087441;28;46618;-68
2022/03/12 01:33:14;;;;;;;8.70;4.63;;;;;;;2.62;40.26;101753.19;2086465;28;43226;-69
2022/03/12 01:34:19;;;;;;;10.00;4.35;;;;;;;2.60;39.91;101734.69;2087901;28;20050;-69
2022/03/12 01:35:23;;;;;;;8.55;4.40;;;;;;;2.65;40.35;101745.34;2096000;28;20134;-69
2022/03/12 01:36:25;;;;;;;8.32;4.78;;;;;;;2.63;39.55;101750.59;2095794;28;44630;-69
2022/03/12 01:37:28;;;;;;;7.78;4.60;;;;;;;2.62;40.02;101751.47;2097301;28;20075;-68
2022/03/12 01:38:49;;;;;;;8.82;4.15;;;;;;;2.63;40.05;101736.47;2096991;28;43460;-69
2022/03/12 01:39:51;;;;;;;8.50;4.32;;;;;;;2.59;40.57;101751.38;2096193;28;44047;-69
2022/03/12 01:40:55;;;;;;;9.18;4.30;;;;;;;2.55;40.48;101748.63;2096828;28;45763;-69
2022/03/12 01:41:57;;;;;;;9.00;4.30;;;;;;;2.54;40.68;101746.84;2096640;28;40353;-68
2022/03/12 01:42:59;;;;;;;8.55;4.32;;;;;;;2.54;40.50;101755.66;2096915;28;46337;-69
2022/03/12 01:44:02;;;;;;;9.82;4.30;;;;;;;2.51;40.84;101752.06;2096889;28;35350;-68
2022/03/12 01:45:10;;;;;;;8.25;4.25;;;;;;;2.46;40.49;101751.97;2097792;28;37029;-69
2022/03/12 01:46:11;;;;;;;8.60;4.47;;;;;;;2.45;40.84;101736.94;2096834;28;44321;-69
2022/03/12 01:47:19;;;;;;;6.97;4.10;;;;;;;2.44;40.69;101749.28;2088002;28;43733;-69
2022/03/12 01:48:21;;;;;;;7.35;4.28;;;;;;;2.39;40.80;101745.63;2088841;28;43073;-69
2022/03/12 01:49:23;;;;;;;12.23;4.03;;;;;;;2.40;40.97;101744.75;2095790;28;45940;-69
2022/03/12 01:50:31;;;;;;;6.72;4.22;;;;;;;2.38;40.93;101735.91;2087735;28;36654;-69
2022/03/12 01:51:33;;;;;;;9.55;4.28;;;;;;;2.39;40.54;101755.31;2088815;28;44728;-68
2022/03/12 01:52:37;;;;;;;7.40;4.22;;;;;;;2.39;41.11;101747.41;2097619;28;20873;-68
2022/03/12 01:53:39;;;;;;;8.75;4.28;;;;;;;2.40;40.55;101743.88;2097288;28;26357;-69
2022/03/12 01:54:42;;;;;;;7.50;4.30;;;;;;;2.36;40.80;101747.31;2096624;28;44161;-69
2022/03/12 01:55:43;;;;;;;6.95;4.05;;;;;;;2.39;40.68;101737.72;2087679;28;38560;-68
2022/03/12 01:56:49;;;;;;;8.10;4.00;;;;;;;2.40;40.73;101739.47;2089317;28;20085;-68
2022/03/12 01:57:52;;;;;;;12.52;4.45;;;;;;;2.42;40.65;101744.81;2087326;28;42479;-69
2022/03/12 01:58:55;;;;;;;6.57;4.22;;;;;;;2.38;40.80;101737.66;2089170;28;20081;-69
2022/03/12 01:59:58;;;;;;;7.90;4.18;;;;;;;2.39;40.79;101742.09;2087805;28;45702;-69
2022/03/12 02:01:00;;;;;;;10.52;4.47;;;;;;;2.38;40.96;101738.56;2087888;28;44865;-68
2022/03/12 02:02:13;;;;;;;9.43;4.63;;;;;;;2.35;40.58;101735.88;2097499;28;20045;-68
2022/03/12 02:03:23;;;;;;;7.53;4.03;;;;;;;2.32;41.16;101737.53;2096502;28;43398;-70
2022/03/12 02:04:29;;;;;;;8.95;4.13;;;;;;;2.27;41.13;101738.28;2096349;28;43636;-69
2022/03/12 02:05:34;;;;;;;7.40;4.45;;;;;;;2.26;41.14;101731.25;2097960;28;20164;-69
2022/03/12 02:06:43;;;;;;;12.57;4.70;;;;;;;2.25;40.94;101725.91;2096206;28;45628;-69
2022/03/12 02:07:46;;;;;;;9.98;4.45;;;;;;;2.26;41.00;101738.25;2087696;28;46631;-69
2022/03/12 02:08:53;;;;;;;7.20;4.13;;;;;;;2.26;40.88;101733.88;2089352;28;20072;-69
2022/03/12 02:09:55;;;;;;;10.45;3.95;;;;;;;2.22;40.53;101739.94;2096524;28;43884;-70
2022/03/12 02:10:59;;;;;;;6.18;3.88;;;;;;;2.22;41.02;101724.09;2097867;28;20084;-69
2022/03/12 02:12:01;;;;;;;8.43;4.18;;;;;;;2.20;41.28;101736.38;2097843;28;20049;-69
2022/03/12 02:13:05;;;;;;;8.35;4.28;;;;;;;2.20;40.99;101735.47;2096684;28;45774;-69
2022/03/12 02:14:15;;;;;;;8.05;4.68;;;;;;;2.19;40.60;101731.94;2087748;28;45767;-69
2022/03/12 02:15:19;;;;;;;9.57;4.43;;;;;;;2.20;41.12;101731.06;2089065;28;45287;-69
2022/03/12 02:16:23;;;;;;;12.18;4.72;;;;;;;2.23;40.85;101741.72;2097318;28;29464;-69
2022/03/12 02:17:24;;;;;;;8.15;4.38;;;;;;;2.20;41.32;101720.50;2096650;28;42260;-69
2022/03/12 02:18:26;;;;;;;8.00;4.20;;;;;;;2.19;40.75;101721.38;2096139;28;45255;-69
2022/03/12 02:19:30;;;;;;;8.90;3.70;;;;;;;2.23;40.84;101728.53;2087236;28;45446;-69
2022/03/12 02:20:32;;;;;;;7.80;4.32;;;;;;;2.25;40.60;101729.44;2088042;28;44104;-69
2022/03/12 02:21:38;;;;;;;7.93;4.28;;;;;;;2.22;41.06;101729.38;2087222;28;46572;-69
2022/03/12 02:22:40;;;;;;;7.43;4.40;;;;;;;2.18;41.02;101719.59;2088251;28;43728;-69
2022/03/12 02:23:48;;;;;;;6.05;3.88;;;;;;;2.20;41.10;101724.91;2096683;28;37358;-69
2022/03/12 02:24:50;;;;;;;8.25;3.70;;;;;;;2.22;40.71;101724.09;2096566;28;45470;-69
2022/03/12 02:25:52;;;;;;;8.02;3.80;;;;;;;2.21;40.76;101722.31;2096493;28;45721;-69
2022/03/12 02:26:57;;;;;;;8.95;4.20;;;;;;;2.17;41.09;101720.47;2086735;28;46238;-69
2022/03/12 02:28:02;;;;;;;7.03;3.78;;;;;;;2.18;40.62;101711.66;2088452;28;42310;-69
2022/03/12 02:29:09;;;;;;;7.75;4.05;;;;;;;2.20;40.85;101717.88;2096729;28;45494;-69
2022/03/12 02:30:12;;;;;;;8.50;4.30;;;;;;;2.18;41.11;101731.91;2095295;28;44229;-69
2022/03/12 02:31:14;;;;;;;6.60;3.83;;;;;;;2.15;40.59;101715.97;2096424;28;44854;-69
2022/03/12 02:32:17;;;;;;;7.07;4.55;;;;;;;2.14;41.20;101733.59;2087362;28;44516;-69
2022/03/12 02:33:27;;;;;;;8.43;4.43;;;;;;;2.05;41.45;101726.31;2087613;28;43166;-69
2022/03/12 02:34:50;;;;;;;7.60;4.07;;;;;;;2.07;41.29;101724.59;2087687;28;45230;-68
2022/03/12 02:35:53;;;;;;;8.18;3.88;;;;;;;2.07;41.26;101724.59;2084435;28;21118;-69
2022/03/12 02:36:56;;;;;;;7.70;3.70;;;;;;;2.06;41.13;101722.84;2088051;28;43504;-69
2022/03/12 02:37:59;;;;;;;6.07;3.92;;;;;;;2.12;40.87;101726.47;2095886;28;46756;-69
2022/03/12 02:39:04;;;;;;;9.85;4.40;;;;;;;2.11;41.00;101728.22;2086931;28;45831;-69
2022/03/12 02:40:09;;;;;;;6.90;4.10;;;;;;;2.09;40.92;101724.66;2087857;28;45041;-68
2022/03/12 02:41:11;;;;;;;6.57;4.05;;;;;;;2.12;40.89;101724.75;2095895;28;40510;-68
2022/03/12 02:42:13;;;;;;;7.60;4.40;;;;;;;2.12;41.03;101729.09;2096385;28;43101;-68
2022/03/12 02:43:26;;;;;;;8.93;4.30;;;;;;;2.10;40.70;101724.69;2096440;28;43885;-68
2022/03/12 02:44:28;;;;;;;7.95;4.00;;;;;;;2.07;41.14;101716.69;2087644;28;44264;-69
2022/03/12 02:45:33;;;;;;;10.70;4.03;;;;;;;2.08;41.21;101717.56;2089021;28;43314;-68
2022/03/12 02:46:40;;;;;;;6.32;3.75;;;;;;;2.09;40.78;101722.00;2096442;28;45148;-68
2022/03/12 02:47:43;;;;;;;7.60;4.13;;;;;;;2.09;41.11;101720.25;2096236;28;42128;-68
2022/03/12 02:48:51;;;;;;;7.30;3.90;;;;;;;2.12;40.70;101714.16;2086901;28;45419;-68
2022/03/12 02:49:57;;;;;;;8.52;4.78;;;;;;;2.07;40.81;101729.00;2088638;28;44430;-67
2022/03/12 02:51:01;;;;;;;8.02;4.25;;;;;;;2.06;41.07;101724.56;2096656;28;42962;-68
2022/03/12 02:52:03;;;;;;;6.85;4.50;;;;;;;2.06;41.09;101721.94;2096599;28;38468;-68
2022/03/12 02:53:05;;;;;;;6.82;4.00;;;;;;;2.05;41.21;101720.16;2096499;28;42938;-68
2022/03/12 02:54:07;;;;;;;6.65;3.92;;;;;;;2.02;40.28;101728.00;2095953;28;45345;-68
2022/03/12 02:55:18;;;;;;;6.45;3.92;;;;;;;2.05;40.67;101722.81;2097285;28;20148;-68
2022/03/12 02:56:28;;;;;;;7.47;4.28;;;;;;;2.05;41.08;101721.03;2080600;28;20052;-68
2022/03/12 02:57:30;;;;;;;6.68;4.40;;;;;;;2.05;40.65;101731.59;2082633;28;36537;-67
2022/03/12 02:58:32;;;;;;;10.02;4.38;;;;;;;2.01;40.91;101724.47;2087403;28;44612;-68
2022/03/12 02:59:34;;;;;;;8.68;4.30;;;;;;;2.06;40.88;101727.22;2087675;28;45046;-67
2022/03/12 03:00:36;;;;;;;8.07;3.55;;;;;;;2.04;40.94;101726.28;2087305;28;44937;-68
2022/03/12 03:01:38;;;;;;;8.55;4.10;;;;;;;2.05;40.64;101728.97;2087797;28;42385;-67
2022/03/12 03:02:41;;;;;;;7.38;3.35;;;;;;;2.06;40.53;101730.78;2096250;28;45752;-68
2022/03/12 03:03:46;;;;;;;8.88;4.18;;;;;;;2.04;40.66;101737.72;2096807;28;44961;-67
2022/03/12 03:04:47;;;;;;;7.25;4.05;;;;;;;2.09;40.06;101732.56;2096670;28;43897;-68
2022/03/12 03:05:50;;;;;;;9.00;4.10;;;;;;;2.08;40.37;101730.78;2096358;28;43918;-67
2022/03/12 03:06:52;;;;;;;8.93;3.97;;;;;;;2.06;40.52;101732.50;2096529;28;42054;-68
2022/03/12 03:07:56;;;;;;;8.20;4.43;;;;;;;2.08;40.44;101729.06;2096543;28;43999;-68
2022/03/12 03:08:57;;;;;;;11.07;4.10;;;;;;;2.06;40.89;101736.06;2096719;28;39865;-68
2022/03/12 03:09:59;;;;;;;7.13;3.90;;;;;;;2.05;40.67;101728.97;2096249;28;45070;-68
2022/03/12 03:11:02;;;;;;;10.25;4.22;;;;;;;2.10;40.26;101729.97;2096138;28;44009;-68
2022/03/12 03:12:09;;;;;;;5.88;4.00;;;;;;;2.08;40.51;101731.69;2086843;28;40855;-68
2022/03/12 03:13:35;;;;;;;8.65;3.47;;;;;;;2.10;40.71;101735.25;2079903;28;44038;-68
2022/03/12 03:14:42;;;;;;;6.93;3.70;;;;;;;2.06;40.23;101743.97;2083145;28;45333;-68
2022/03/12 03:16:01;;;;;;;9.85;3.92;;;;;;;2.06;40.35;101741.34;2088966;28;44099;-68
2022/03/12 03:17:04;;;;;;;5.63;3.85;;;;;;;2.06;40.19;101732.50;2087371;28;46281;-69
2022/03/12 03:18:12;;;;;;;7.35;3.70;;;;;;;2.02;40.34;101733.28;2081657;28;42356;-67
2022/03/12 03:19:15;;;;;;;6.15;3.47;;;;;;;2.06;40.34;101737.78;2088278;28;45494;-68
2022/03/12 03:20:17;;;;;;;7.32;4.30;;;;;;;2.07;40.32;101734.28;2095909;28;46575;-68
2022/03/12 03:21:25;;;;;;;8.52;3.78;;;;;;;2.04;40.62;101734.22;2096318;28;42019;-69
2022/03/12 03:22:26;;;;;;;7.85;4.00;;;;;;;2.03;40.49;101740.38;2087172;28;37251;-68
2022/03/12 03:23:31;;;;;;;6.43;3.72;;;;;;;2.04;40.41;101728.94;2087772;28;44393;-68
2022/03/12 03:24:33;;;;;;;4.85;3.00;;;;;;;2.04;40.24;101743.00;2095958;28;45325;-68
2022/03/12 03:25:37;;;;;;;7.70;4.13;;;;;;;2.06;40.27;101733.41;2087541;28;20142;-68
2022/03/12 03:26:40;;;;;;;8.50;4.07;;;;;;;2.08;40.67;101733.41;2088355;28;20030;-68
2022/03/12 03:27:41;;;;;;;7.72;3.90;;;;;;;2.03;40.45;101725.41;2095803;28;45576;-68
2022/03/12 03:28:43;;;;;;;5.03;3.38;;;;;;;2.06;40.47;101728.13;2096160;28;45878;-67
2022/03/12 03:29:45;;;;;;;7.20;3.92;;;;;;;2.09;39.89;101738.75;2095930;28;45424;-68
2022/03/12 03:30:47;;;;;;;6.90;4.20;;;;;;;2.10;39.78;101740.53;2095851;28;46005;-68
2022/03/12 03:31:49;;;;;;;7.57;3.92;;;;;;;2.09;39.94;101735.22;2096054;28;43836;-69
2022/03/12 03:32:51;;;;;;;6.95;3.88;;;;;;;2.08;39.93;101733.41;2086430;28;43024;-68
2022/03/12 03:33:52;;;;;;;7.32;4.15;;;;;;;2.05;39.62;101734.25;2078649;28;45771;-68
2022/03/12 03:34:54;;;;;;;5.95;3.85;;;;;;;2.07;39.73;101740.47;2087941;28;20049;-68
2022/03/12 03:35:56;;;;;;;9.25;3.63;;;;;;;2.04;39.97;101737.72;2086656;28;46353;-68
2022/03/12 03:36:59;;;;;;;9.40;4.03;;;;;;;2.03;39.94;101740.38;2087962;28;43495;-68
2022/03/12 03:38:00;;;;;;;9.13;4.03;;;;;;;2.05;39.80;101736.00;2087914;28;43892;-68
2022/03/12 03:39:03;;;;;;;8.80;3.70;;;;;;;2.06;39.57;101743.06;2087639;28;44535;-68
2022/03/12 03:40:06;;;;;;;6.38;4.20;;;;;;;2.02;40.17;101747.38;2088503;28;45512;-68
2022/03/12 03:41:07;;;;;;;6.78;3.80;;;;;;;2.03;40.30;101748.28;2087885;28;45573;-68
2022/03/12 03:42:19;;;;;;;8.30;4.10;;;;;;;2.04;39.85;101750.94;2087007;28;45826;-68
2022/03/12 03:43:26;;;;;;;6.60;3.28;;;;;;;2.02;40.11;101738.56;2078578;28;45134;-68
2022/03/12 03:44:29;;;;;;;7.82;3.78;;;;;;;2.05;39.82;101744.81;2080030;28;36756;-68
2022/03/12 03:45:30;;;;;;;6.43;3.53;;;;;;;2.05;39.94;101738.66;2087675;28;42037;-68
2022/03/12 03:46:33;;;;;;;6.38;3.55;;;;;;;2.07;40.06;101747.50;2087153;28;45502;-68
2022/03/12 03:47:35;;;;;;;8.00;4.13;;;;;;;2.08;39.78;101747.53;2090033;28;37851;-68
2022/03/12 03:48:38;;;;;;;6.97;3.63;;;;;;;2.05;39.84;101750.09;2088272;28;20329;-68
2022/03/12 03:49:40;;;;;;;6.45;3.78;;;;;;;2.04;40.04;101747.41;2087541;28;44457;-68
2022/03/12 03:50:47;;;;;;;7.15;3.35;;;;;;;2.03;39.96;101743.88;2088571;28;20041;-68
2022/03/12 03:51:49;;;;;;;9.55;3.47;;;;;;;2.04;39.90;101732.44;2086368;28;45441;-68
2022/03/12 03:53:03;;;;;;;6.63;3.50;;;;;;;2.12;39.53;101744.94;2086422;28;43070;-68
2022/03/12 03:54:08;;;;;;;8.05;3.95;;;;;;;2.11;39.79;101752.00;2080594;28;43325;-68
2022/03/12 03:55:09;;;;;;;9.80;4.32;;;;;;;2.10;39.97;101750.22;2087419;28;46009;-67
2022/03/12 03:56:12;;;;;;;8.07;3.88;;;;;;;2.07;39.64;101745.75;2087689;28;41818;-67
2022/03/12 03:57:16;;;;;;;6.00;3.70;;;;;;;2.10;39.80;101742.31;2087536;28;20093;-67
2022/03/12 03:58:17;;;;;;;5.50;4.00;;;;;;;2.09;39.60;101738.75;2087174;28;44396;-68
2022/03/12 03:59:19;;;;;;;7.10;4.30;;;;;;;2.07;39.32;101750.13;2086554;28;43888;-68
2022/03/12 04:00:24;;;;;;;7.60;3.88;;;;;;;2.11;39.34;101738.78;2077325;28;45150;-68
2022/03/12 04:01:26;;;;;;;6.13;3.80;;;;;;;2.08;39.22;101741.34;2087182;28;37216;-68
2022/03/12 04:02:28;;;;;;;7.75;3.92;;;;;;;2.07;39.73;101744.84;2087983;28;20037;-67
2022/03/12 04:03:34;;;;;;;5.78;3.38;;;;;;;2.05;39.78;101744.81;2087160;28;45448;-68
2022/03/12 04:04:38;;;;;;;5.80;3.45;;;;;;;2.04;40.01;101750.06;2087058;28;42286;-68
2022/03/12 04:05:40;;;;;;;6.63;3.55;;;;;;;2.02;40.01;101751.78;2080799;28;20042;-68
2022/03/12 04:06:42;;;;;;;8.38;3.10;;;;;;;2.05;39.66;101742.19;2087355;28;44370;-68
2022/03/12 04:07:43;;;;;;;6.28;3.50;;;;;;;2.06;39.00;101745.69;2085902;28;43320;-67
2022/03/12 04:08:45;;;;;;;8.75;3.85;;;;;;;2.06;39.83;101741.34;2087015;28;46414;-67
2022/03/12 04:09:48;;;;;;;8.90;3.78;;;;;;;2.06;39.83;101745.69;2095887;28;42063;-67
2022/03/12 04:10:50;;;;;;;10.20;3.72;;;;;;;2.04;39.42;101748.28;2095646;28;42989;-68
2022/03/12 04:11:52;;;;;;;6.80;3.92;;;;;;;2.04;39.68;101740.38;2095742;28;45384;-68
2022/03/12 04:12:56;;;;;;;8.55;3.97;;;;;;;2.03;39.58;101745.66;2096121;28;43935;-68
2022/03/12 04:13:58;;;;;;;6.75;3.78;;;;;;;2.01;39.82;101739.41;2096232;28;44891;-68
2022/03/12 04:14:59;;;;;;;7.15;3.67;;;;;;;2.00;40.26;101742.91;2087299;28;38750;-68
2022/03/12 04:16:02;;;;;;;7.80;3.95;;;;;;;1.97;39.81;101745.47;2087777;28;44585;-68
2022/03/12 04:17:05;;;;;;;7.90;4.28;;;;;;;1.97;39.55;101748.13;2086886;28;46096;-68
2022/03/12 04:18:07;;;;;;;10.98;4.28;;;;;;;2.01;39.77;101755.25;2087527;28;44100;-69
2022/03/12 04:19:10;;;;;;;8.00;4.25;;;;;;;1.99;39.97;101746.41;2095966;28;46145;-68
2022/03/12 04:20:15;;;;;;;7.80;3.90;;;;;;;1.98;39.87;101756.06;2095534;28;35783;-68
2022/03/12 04:21:20;;;;;;;6.93;3.53;;;;;;;2.00;39.38;101749.09;2087537;28;20045;-68
2022/03/12 04:22:26;;;;;;;8.50;3.67;;;;;;;1.95;39.72;101750.72;2081008;28;20903;-68
2022/03/12 04:23:28;;;;;;;9.65;3.85;;;;;;;1.95;40.15;101749.81;2087824;28;43159;-67
2022/03/12 04:24:29;;;;;;;5.03;3.17;;;;;;;1.94;39.47;101740.09;2086439;28;44850;-68
2022/03/12 04:25:31;;;;;;;8.05;3.90;;;;;;;1.96;40.06;101752.50;2087115;28;42302;-67
2022/03/12 04:26:35;;;;;;;5.90;3.53;;;;;;;1.94;39.80;101754.22;2096035;28;38797;-68
2022/03/12 04:27:38;;;;;;;7.80;4.13;;;;;;;1.94;39.91;101751.59;2095321;28;44243;-68
2022/03/12 04:28:43;;;;;;;6.47;3.58;;;;;;;1.99;39.62;101749.03;2087022;28;43329;-68
2022/03/12 04:29:45;;;;;;;7.15;3.28;;;;;;;2.01;39.16;101749.97;2088639;28;20077;-68
2022/03/12 04:30:47;;;;;;;8.10;3.67;;;;;;;2.00;39.67;101758.75;2078673;28;43765;-68
2022/03/12 04:31:49;;;;;;;6.95;3.60;;;;;;;2.00;39.71;101758.75;2079175;28;44273;-69
2022/03/12 04:32:51;;;;;;;7.45;3.88;;;;;;;1.99;39.94;101746.41;2086811;28;44815;-69
2022/03/12 04:33:55;;;;;;;7.45;3.72;;;;;;;1.97;39.45;101751.63;2086865;28;43163;-68
2022/03/12 04:34:56;;;;;;;7.97;3.80;;;;;;;1.92;39.99;101761.22;2086568;28;44061;-68
2022/03/12 04:36:00;;;;;;;7.80;3.60;;;;;;;1.92;40.00;101755.94;2087409;28;45653;-68
2022/03/12 04:37:03;;;;;;;7.05;4.10;;;;;;;1.94;40.19;101761.22;2086819;28;43614;-68
2022/03/12 04:38:07;;;;;;;5.88;3.60;;;;;;;1.90;40.54;101758.53;2086472;28;45202;-67
2022/03/12 04:39:12;;;;;;;7.38;3.72;;;;;;;1.89;40.22;101764.66;2095871;28;44761;-69
2022/03/12 04:40:24;;;;;;;6.32;3.90;;;;;;;1.90;39.73;101763.81;2095856;28;45772;-68
2022/03/12 04:41:34;;;;;;;6.68;3.75;;;;;;;1.90;40.10;101763.81;2095907;28;45600;-68
2022/03/12 04:42:39;;;;;;;6.05;3.65;;;;;;;1.91;40.10;101765.59;2087349;28;20115;-68
2022/03/12 04:43:42;;;;;;;8.85;4.10;;;;;;;1.90;39.87;101761.19;2088434;28;44870;-67
2022/03/12 04:44:44;;;;;;;6.38;3.30;;;;;;;1.89;40.30;101756.72;2095547;28;43656;-68
2022/03/12 04:45:46;;;;;;;9.88;3.90;;;;;;;1.89;39.76;101756.72;2095391;28;45395;-69
2022/03/12 04:46:48;;;;;;;10.50;3.67;;;;;;;1.93;39.85;101767.38;2086684;28;45759;-68
2022/03/12 04:47:51;;;;;;;7.38;4.30;;;;;;;1.91;40.46;101760.31;2088102;28;29231;-68
2022/03/12 04:48:55;;;;;;;6.80;3.92;;;;;;;1.89;40.17;101767.28;2095807;28;45311;-68
2022/03/12 04:49:57;;;;;;;6.63;3.60;;;;;;;1.85;39.81;101762.81;2086966;28;43740;-69
2022/03/12 04:50:59;;;;;;;7.93;3.88;;;;;;;1.89;40.33;101763.78;2087072;28;46332;-69
2022/03/12 04:52:00;;;;;;;7.97;3.58;;;;;;;1.89;39.71;101767.28;2086717;28;45341;-68
2022/03/12 04:53:02;;;;;;;7.47;3.67;;;;;;;1.87;40.41;101766.38;2086595;28;36253;-69
2022/03/12 04:54:04;;;;;;;6.10;3.58;;;;;;;1.88;40.40;101770.81;2095629;28;43696;-68
2022/03/12 04:55:09;;;;;;;10.48;3.97;;;;;;;1.87;40.23;101769.00;2095795;28;44807;-69
2022/03/12 04:56:11;;;;;;;5.95;3.72;;;;;;;1.88;40.07;101775.16;2086167;28;44121;-68
2022/03/12 04:57:13;;;;;;;7.50;3.92;;;;;;;1.88;40.20;101769.88;2087219;28;42134;-68
2022/03/12 04:58:17;;;;;;;6.18;3.85;;;;;;;1.85;40.35;101768.09;2096038;28;35039;-69
2022/03/12 04:59:19;;;;;;;5.95;3.42;;;;;;;1.85;40.16;101767.19;2095341;28;44243;-69